sensor_id;sensor_type;location;lat;lon;timestamp;P1;durP1;ratioP1;P2;durP2;ratioP2
11653;SDS011;5883;48.818;9.114;2023-07-30T00:01:51;4.45;;;1.55;;
11653;SDS011;5883;48.818;9.114;2023-07-30T00:04:37;1.90;;;1.25;;
11653;SDS011;5883;48.818;9.114;2023-07-30T00:07:22;1.60;;;1.40;;
11653;SDS011;5883;48.818;9.114;2023-07-30T00:10:07;1.92;;;1.40;;
11653;SDS011;5883;48.818;9.114;2023-07-30T00:12:52;1.55;;;1.20;;
11653;SDS011;5883;48.818;9.114;2023-07-30T00:15:37;1.85;;;1.48;;
11653;SDS011;5883;48.818;9.114;2023-07-30T00:18:22;2.28;;;1.23;;
11653;SDS011;5883;48.818;9.114;2023-07-30T00:21:09;1.92;;;1.25;;
11653;SDS011;5883;48.818;9.114;2023-07-30T00:23:54;2.03;;;1.30;;
11653;SDS011;5883;48.818;9.114;2023-07-30T00:26:39;1.38;;;1.10;;
11653;SDS011;5883;48.818;9.114;2023-07-30T00:29:24;4.32;;;1.02;;
11653;SDS011;5883;48.818;9.114;2023-07-30T00:32:08;2.00;;;1.30;;
11653;SDS011;5883;48.818;9.114;2023-07-30T00:34:55;2.17;;;1.00;;
11653;SDS011;5883;48.818;9.114;2023-07-30T00:37:41;2.25;;;1.20;;
11653;SDS011;5883;48.818;9.114;2023-07-30T00:40:26;4.95;;;1.33;;
11653;SDS011;5883;48.818;9.114;2023-07-30T00:43:12;1.58;;;1.30;;
11653;SDS011;5883;48.818;9.114;2023-07-30T00:45:57;1.83;;;1.40;;
11653;SDS011;5883;48.818;9.114;2023-07-30T00:48:43;1.40;;;1.30;;
11653;SDS011;5883;48.818;9.114;2023-07-30T00:51:28;2.90;;;1.55;;
11653;SDS011;5883;48.818;9.114;2023-07-30T00:54:15;1.23;;;1.13;;
11653;SDS011;5883;48.818;9.114;2023-07-30T00:57:00;2.10;;;1.40;;
11653;SDS011;5883;48.818;9.114;2023-07-30T00:59:45;3.58;;;1.17;;
11653;SDS011;5883;48.818;9.114;2023-07-30T01:02:31;2.63;;;1.20;;
11653;SDS011;5883;48.818;9.114;2023-07-30T01:05:17;2.72;;;1.50;;
11653;SDS011;5883;48.818;9.114;2023-07-30T01:08:03;1.45;;;1.02;;
11653;SDS011;5883;48.818;9.114;2023-07-30T01:10:50;1.90;;;1.08;;
11653;SDS011;5883;48.818;9.114;2023-07-30T01:13:35;1.48;;;1.30;;
11653;SDS011;5883;48.818;9.114;2023-07-30T01:16:21;4.50;;;1.52;;
11653;SDS011;5883;48.818;9.114;2023-07-30T01:19:06;1.40;;;1.30;;
11653;SDS011;5883;48.818;9.114;2023-07-30T01:21:53;1.60;;;1.40;;
11653;SDS011;5883;48.818;9.114;2023-07-30T01:24:38;3.78;;;1.70;;
11653;SDS011;5883;48.818;9.114;2023-07-30T01:27:24;1.73;;;1.63;;
11653;SDS011;5883;48.818;9.114;2023-07-30T01:30:12;4.03;;;2.00;;
11653;SDS011;5883;48.818;9.114;2023-07-30T01:32:58;4.40;;;1.90;;
11653;SDS011;5883;48.818;9.114;2023-07-30T01:35:43;2.20;;;1.70;;
11653;SDS011;5883;48.818;9.114;2023-07-30T01:38:30;2.55;;;2.10;;
11653;SDS011;5883;48.818;9.114;2023-07-30T01:41:15;2.55;;;2.05;;
11653;SDS011;5883;48.818;9.114;2023-07-30T01:44:01;2.40;;;1.90;;
11653;SDS011;5883;48.818;9.114;2023-07-30T01:46:46;2.03;;;1.80;;
11653;SDS011;5883;48.818;9.114;2023-07-30T01:49:31;2.38;;;1.80;;
11653;SDS011;5883;48.818;9.114;2023-07-30T01:52:16;3.42;;;1.85;;
11653;SDS011;5883;48.818;9.114;2023-07-30T01:55:04;2.75;;;1.77;;
11653;SDS011;5883;48.818;9.114;2023-07-30T01:57:49;2.10;;;1.90;;
11653;SDS011;5883;48.818;9.114;2023-07-30T02:00:34;2.22;;;1.98;;
11653;SDS011;5883;48.818;9.114;2023-07-30T02:03:19;4.05;;;1.80;;
11653;SDS011;5883;48.818;9.114;2023-07-30T02:06:04;2.30;;;2.00;;
11653;SDS011;5883;48.818;9.114;2023-07-30T02:08:50;2.33;;;2.13;;
11653;SDS011;5883;48.818;9.114;2023-07-30T02:11:36;2.33;;;1.95;;
11653;SDS011;5883;48.818;9.114;2023-07-30T02:14:22;4.60;;;2.15;;
11653;SDS011;5883;48.818;9.114;2023-07-30T02:17:07;2.67;;;2.05;;
11653;SDS011;5883;48.818;9.114;2023-07-30T02:19:52;3.92;;;2.17;;
11653;SDS011;5883;48.818;9.114;2023-07-30T02:22:37;2.45;;;1.80;;
11653;SDS011;5883;48.818;9.114;2023-07-30T02:25:22;2.28;;;1.63;;
11653;SDS011;5883;48.818;9.114;2023-07-30T02:28:08;2.20;;;1.70;;
11653;SDS011;5883;48.818;9.114;2023-07-30T02:30:53;1.80;;;1.60;;
11653;SDS011;5883;48.818;9.114;2023-07-30T02:33:38;1.90;;;1.75;;
11653;SDS011;5883;48.818;9.114;2023-07-30T02:36:23;2.22;;;1.88;;
11653;SDS011;5883;48.818;9.114;2023-07-30T02:39:09;2.22;;;1.88;;
11653;SDS011;5883;48.818;9.114;2023-07-30T02:41:54;2.10;;;1.88;;
11653;SDS011;5883;48.818;9.114;2023-07-30T02:44:40;1.60;;;1.50;;
11653;SDS011;5883;48.818;9.114;2023-07-30T02:47:25;2.60;;;1.90;;
11653;SDS011;5883;48.818;9.114;2023-07-30T02:50:10;1.75;;;1.65;;
11653;SDS011;5883;48.818;9.114;2023-07-30T02:52:56;1.80;;;1.70;;
11653;SDS011;5883;48.818;9.114;2023-07-30T02:55:44;8.75;;;1.75;;
11653;SDS011;5883;48.818;9.114;2023-07-30T02:58:30;2.30;;;1.70;;
11653;SDS011;5883;48.818;9.114;2023-07-30T03:01:16;1.77;;;1.58;;
11653;SDS011;5883;48.818;9.114;2023-07-30T03:04:03;2.08;;;1.55;;
11653;SDS011;5883;48.818;9.114;2023-07-30T03:06:48;3.00;;;1.75;;
11653;SDS011;5883;48.818;9.114;2023-07-30T03:09:34;1.85;;;1.70;;
11653;SDS011;5883;48.818;9.114;2023-07-30T03:12:21;2.22;;;1.67;;
11653;SDS011;5883;48.818;9.114;2023-07-30T03:15:06;3.42;;;2.13;;
11653;SDS011;5883;48.818;9.114;2023-07-30T03:17:53;1.63;;;1.52;;
11653;SDS011;5883;48.818;9.114;2023-07-30T03:20:38;1.63;;;1.52;;
11653;SDS011;5883;48.818;9.114;2023-07-30T03:23:23;2.85;;;1.90;;
11653;SDS011;5883;48.818;9.114;2023-07-30T03:26:08;2.90;;;1.77;;
11653;SDS011;5883;48.818;9.114;2023-07-30T03:28:53;2.20;;;1.75;;
11653;SDS011;5883;48.818;9.114;2023-07-30T03:31:38;2.55;;;1.80;;
11653;SDS011;5883;48.818;9.114;2023-07-30T03:34:24;3.17;;;1.90;;
11653;SDS011;5883;48.818;9.114;2023-07-30T03:37:11;2.35;;;1.95;;
11653;SDS011;5883;48.818;9.114;2023-07-30T03:39:56;2.20;;;2.00;;
11653;SDS011;5883;48.818;9.114;2023-07-30T03:42:41;2.35;;;2.15;;
11653;SDS011;5883;48.818;9.114;2023-07-30T03:45:27;2.72;;;1.90;;
11653;SDS011;5883;48.818;9.114;2023-07-30T03:48:12;2.75;;;2.20;;
11653;SDS011;5883;48.818;9.114;2023-07-30T03:50:58;3.15;;;1.90;;
11653;SDS011;5883;48.818;9.114;2023-07-30T03:53:43;2.20;;;2.00;;
11653;SDS011;5883;48.818;9.114;2023-07-30T03:56:29;2.42;;;2.00;;
11653;SDS011;5883;48.818;9.114;2023-07-30T03:59:14;3.13;;;1.80;;
11653;SDS011;5883;48.818;9.114;2023-07-30T04:01:59;2.17;;;1.90;;
11653;SDS011;5883;48.818;9.114;2023-07-30T04:04:44;3.63;;;1.88;;
11653;SDS011;5883;48.818;9.114;2023-07-30T04:07:33;2.00;;;1.80;;
11653;SDS011;5883;48.818;9.114;2023-07-30T04:10:18;3.97;;;2.08;;
11653;SDS011;5883;48.818;9.114;2023-07-30T04:13:03;2.35;;;1.88;;
11653;SDS011;5883;48.818;9.114;2023-07-30T04:15:49;3.97;;;1.77;;
11653;SDS011;5883;48.818;9.114;2023-07-30T04:18:34;1.83;;;1.60;;
11653;SDS011;5883;48.818;9.114;2023-07-30T04:21:18;4.80;;;1.88;;
11653;SDS011;5883;48.818;9.114;2023-07-30T04:24:05;4.68;;;1.80;;
11653;SDS011;5883;48.818;9.114;2023-07-30T04:26:50;2.33;;;1.88;;
11653;SDS011;5883;48.818;9.114;2023-07-30T04:29:35;3.60;;;1.85;;
11653;SDS011;5883;48.818;9.114;2023-07-30T04:32:20;2.20;;;1.90;;
11653;SDS011;5883;48.818;9.114;2023-07-30T04:35:05;2.35;;;1.85;;
11653;SDS011;5883;48.818;9.114;2023-07-30T04:37:51;2.80;;;2.00;;
11653;SDS011;5883;48.818;9.114;2023-07-30T04:40:38;3.38;;;2.10;;
11653;SDS011;5883;48.818;9.114;2023-07-30T04:43:23;3.15;;;1.98;;
11653;SDS011;5883;48.818;9.114;2023-07-30T04:46:08;2.30;;;1.90;;
11653;SDS011;5883;48.818;9.114;2023-07-30T04:48:53;3.05;;;1.90;;
11653;SDS011;5883;48.818;9.114;2023-07-30T04:51:38;2.50;;;1.83;;
11653;SDS011;5883;48.818;9.114;2023-07-30T04:54:23;2.95;;;1.98;;
11653;SDS011;5883;48.818;9.114;2023-07-30T04:57:10;3.70;;;2.00;;
11653;SDS011;5883;48.818;9.114;2023-07-30T04:59:55;1.90;;;1.70;;
11653;SDS011;5883;48.818;9.114;2023-07-30T05:02:40;3.00;;;2.05;;
11653;SDS011;5883;48.818;9.114;2023-07-30T05:05:25;3.13;;;1.65;;
11653;SDS011;5883;48.818;9.114;2023-07-30T05:08:10;2.00;;;1.70;;
11653;SDS011;5883;48.818;9.114;2023-07-30T05:10:56;2.03;;;1.55;;
11653;SDS011;5883;48.818;9.114;2023-07-30T05:13:43;4.07;;;1.95;;
11653;SDS011;5883;48.818;9.114;2023-07-30T05:16:28;1.90;;;1.70;;
11653;SDS011;5883;48.818;9.114;2023-07-30T05:19:13;1.60;;;1.50;;
11653;SDS011;5883;48.818;9.114;2023-07-30T05:21:58;3.78;;;1.80;;
11653;SDS011;5883;48.818;9.114;2023-07-30T05:24:45;3.10;;;1.73;;
11653;SDS011;5883;48.818;9.114;2023-07-30T05:27:30;3.35;;;1.60;;
11653;SDS011;5883;48.818;9.114;2023-07-30T05:30:17;2.40;;;1.67;;
11653;SDS011;5883;48.818;9.114;2023-07-30T05:33:02;3.10;;;1.50;;
11653;SDS011;5883;48.818;9.114;2023-07-30T05:35:47;2.88;;;1.40;;
11653;SDS011;5883;48.818;9.114;2023-07-30T05:38:33;2.65;;;1.45;;
11653;SDS011;5883;48.818;9.114;2023-07-30T05:41:18;2.88;;;1.40;;
11653;SDS011;5883;48.818;9.114;2023-07-30T05:44:04;1.92;;;1.50;;
11653;SDS011;5883;48.818;9.114;2023-07-30T05:46:51;1.98;;;1.35;;
11653;SDS011;5883;48.818;9.114;2023-07-30T05:49:36;1.50;;;1.30;;
11653;SDS011;5883;48.818;9.114;2023-07-30T05:52:21;3.40;;;1.45;;
11653;SDS011;5883;48.818;9.114;2023-07-30T05:55:06;1.23;;;1.13;;
11653;SDS011;5883;48.818;9.114;2023-07-30T05:57:51;1.30;;;1.20;;
11653;SDS011;5883;48.818;9.114;2023-07-30T06:00:37;1.83;;;1.25;;
11653;SDS011;5883;48.818;9.114;2023-07-30T06:03:23;1.63;;;1.40;;
11653;SDS011;5883;48.818;9.114;2023-07-30T06:06:09;1.50;;;1.25;;
11653;SDS011;5883;48.818;9.114;2023-07-30T06:08:54;1.98;;;1.40;;
11653;SDS011;5883;48.818;9.114;2023-07-30T06:11:40;1.45;;;1.15;;
11653;SDS011;5883;48.818;9.114;2023-07-30T06:14:25;1.80;;;1.50;;
11653;SDS011;5883;48.818;9.114;2023-07-30T06:17:10;1.70;;;1.10;;
11653;SDS011;5883;48.818;9.114;2023-07-30T06:19:56;1.33;;;1.20;;
11653;SDS011;5883;48.818;9.114;2023-07-30T06:22:42;1.75;;;1.38;;
11653;SDS011;5883;48.818;9.114;2023-07-30T06:25:27;2.72;;;1.27;;
11653;SDS011;5883;48.818;9.114;2023-07-30T06:28:13;1.95;;;1.23;;
11653;SDS011;5883;48.818;9.114;2023-07-30T06:31:00;2.78;;;1.48;;
11653;SDS011;5883;48.818;9.114;2023-07-30T06:33:45;1.65;;;1.52;;
11653;SDS011;5883;48.818;9.114;2023-07-30T06:36:31;1.60;;;1.30;;
11653;SDS011;5883;48.818;9.114;2023-07-30T06:39:19;1.60;;;1.10;;
11653;SDS011;5883;48.818;9.114;2023-07-30T06:42:05;4.30;;;1.20;;
11653;SDS011;5883;48.818;9.114;2023-07-30T06:44:52;2.70;;;1.17;;
11653;SDS011;5883;48.818;9.114;2023-07-30T06:47:38;2.72;;;1.00;;
11653;SDS011;5883;48.818;9.114;2023-07-30T06:50:22;1.00;;;0.90;;
11653;SDS011;5883;48.818;9.114;2023-07-30T06:53:09;1.42;;;1.00;;
11653;SDS011;5883;48.818;9.114;2023-07-30T06:55:54;1.23;;;1.13;;
11653;SDS011;5883;48.818;9.114;2023-07-30T06:58:39;1.23;;;0.93;;
11653;SDS011;5883;48.818;9.114;2023-07-30T07:01:23;1.90;;;1.05;;
11653;SDS011;5883;48.818;9.114;2023-07-30T07:04:08;1.48;;;0.90;;
11653;SDS011;5883;48.818;9.114;2023-07-30T07:06:54;2.28;;;1.02;;
11653;SDS011;5883;48.818;9.114;2023-07-30T07:09:40;2.03;;;1.05;;
11653;SDS011;5883;48.818;9.114;2023-07-30T07:12:28;1.75;;;1.02;;
11653;SDS011;5883;48.818;9.114;2023-07-30T07:15:14;2.15;;;1.17;;
11653;SDS011;5883;48.818;9.114;2023-07-30T07:17:59;0.73;;;0.70;;
11653;SDS011;5883;48.818;9.114;2023-07-30T07:20:44;1.25;;;1.05;;
11653;SDS011;5883;48.818;9.114;2023-07-30T07:23:29;0.73;;;0.70;;
11653;SDS011;5883;48.818;9.114;2023-07-30T07:26:18;2.95;;;1.55;;
11653;SDS011;5883;48.818;9.114;2023-07-30T07:29:03;2.35;;;1.08;;
11653;SDS011;5883;48.818;9.114;2023-07-30T07:31:50;3.58;;;1.05;;
11653;SDS011;5883;48.818;9.114;2023-07-30T07:34:37;1.20;;;1.10;;
11653;SDS011;5883;48.818;9.114;2023-07-30T07:37:22;1.38;;;1.05;;
11653;SDS011;5883;48.818;9.114;2023-07-30T07:40:07;2.75;;;1.20;;
11653;SDS011;5883;48.818;9.114;2023-07-30T07:42:55;1.48;;;1.10;;
11653;SDS011;5883;48.818;9.114;2023-07-30T07:45:40;0.77;;;0.77;;
11653;SDS011;5883;48.818;9.114;2023-07-30T07:48:25;1.13;;;1.02;;
11653;SDS011;5883;48.818;9.114;2023-07-30T07:51:11;2.47;;;1.30;;
11653;SDS011;5883;48.818;9.114;2023-07-30T07:53:56;2.45;;;1.20;;
11653;SDS011;5883;48.818;9.114;2023-07-30T07:56:41;1.52;;;1.40;;
11653;SDS011;5883;48.818;9.114;2023-07-30T07:59:27;1.45;;;1.13;;
11653;SDS011;5883;48.818;9.114;2023-07-30T08:02:13;2.03;;;1.20;;
11653;SDS011;5883;48.818;9.114;2023-07-30T08:04:58;2.50;;;1.30;;
11653;SDS011;5883;48.818;9.114;2023-07-30T08:07:43;2.95;;;1.13;;
11653;SDS011;5883;48.818;9.114;2023-07-30T08:10:29;2.00;;;1.20;;
11653;SDS011;5883;48.818;9.114;2023-07-30T08:13:14;0.88;;;0.80;;
11653;SDS011;5883;48.818;9.114;2023-07-30T08:16:01;1.55;;;1.25;;
11653;SDS011;5883;48.818;9.114;2023-07-30T08:18:48;1.60;;;1.10;;
11653;SDS011;5883;48.818;9.114;2023-07-30T08:21:33;1.75;;;1.20;;
11653;SDS011;5883;48.818;9.114;2023-07-30T08:24:19;1.52;;;1.08;;
11653;SDS011;5883;48.818;9.114;2023-07-30T08:27:04;1.40;;;1.00;;
11653;SDS011;5883;48.818;9.114;2023-07-30T08:29:49;3.42;;;1.20;;
11653;SDS011;5883;48.818;9.114;2023-07-30T08:32:35;1.38;;;1.10;;
11653;SDS011;5883;48.818;9.114;2023-07-30T08:35:20;1.15;;;0.90;;
11653;SDS011;5883;48.818;9.114;2023-07-30T08:38:05;1.58;;;1.27;;
11653;SDS011;5883;48.818;9.114;2023-07-30T08:40:50;0.95;;;0.88;;
11653;SDS011;5883;48.818;9.114;2023-07-30T08:43:36;1.15;;;1.05;;
11653;SDS011;5883;48.818;9.114;2023-07-30T08:46:21;2.38;;;0.90;;
11653;SDS011;5883;48.818;9.114;2023-07-30T08:49:07;3.80;;;1.20;;
11653;SDS011;5883;48.818;9.114;2023-07-30T08:51:52;1.20;;;0.85;;
11653;SDS011;5883;48.818;9.114;2023-07-30T08:54:39;1.08;;;0.98;;
11653;SDS011;5883;48.818;9.114;2023-07-30T08:57:26;1.17;;;1.00;;
11653;SDS011;5883;48.818;9.114;2023-07-30T09:00:11;2.60;;;1.50;;
11653;SDS011;5883;48.818;9.114;2023-07-30T09:02:59;1.17;;;1.08;;
11653;SDS011;5883;48.818;9.114;2023-07-30T09:05:48;1.42;;;1.02;;
11653;SDS011;5883;48.818;9.114;2023-07-30T09:08:34;3.45;;;0.93;;
11653;SDS011;5883;48.818;9.114;2023-07-30T09:11:19;1.08;;;0.98;;
11653;SDS011;5883;48.818;9.114;2023-07-30T09:14:05;3.08;;;1.02;;
11653;SDS011;5883;48.818;9.114;2023-07-30T09:16:56;1.27;;;1.17;;
11653;SDS011;5883;48.818;9.114;2023-07-30T09:19:41;1.20;;;1.10;;
11653;SDS011;5883;48.818;9.114;2023-07-30T09:22:28;1.33;;;0.90;;
11653;SDS011;5883;48.818;9.114;2023-07-30T09:25:14;2.85;;;1.10;;
11653;SDS011;5883;48.818;9.114;2023-07-30T09:28:02;2.35;;;1.10;;
11653;SDS011;5883;48.818;9.114;2023-07-30T09:30:48;3.20;;;1.20;;
11653;SDS011;5883;48.818;9.114;2023-07-30T09:33:34;1.48;;;1.10;;
11653;SDS011;5883;48.818;9.114;2023-07-30T09:36:19;2.67;;;1.10;;
11653;SDS011;5883;48.818;9.114;2023-07-30T09:39:06;3.03;;;1.30;;
11653;SDS011;5883;48.818;9.114;2023-07-30T09:41:59;2.53;;;1.42;;
11653;SDS011;5883;48.818;9.114;2023-07-30T09:44:46;2.40;;;1.10;;
11653;SDS011;5883;48.818;9.114;2023-07-30T09:47:32;1.90;;;1.38;;
11653;SDS011;5883;48.818;9.114;2023-07-30T09:50:19;3.45;;;1.40;;
11653;SDS011;5883;48.818;9.114;2023-07-30T09:53:04;2.92;;;1.48;;
11653;SDS011;5883;48.818;9.114;2023-07-30T09:55:51;1.88;;;1.40;;
11653;SDS011;5883;48.818;9.114;2023-07-30T09:58:36;1.58;;;1.15;;
11653;SDS011;5883;48.818;9.114;2023-07-30T10:01:21;1.77;;;1.48;;
11653;SDS011;5883;48.818;9.114;2023-07-30T10:04:08;2.08;;;1.27;;
11653;SDS011;5883;48.818;9.114;2023-07-30T10:06:55;2.33;;;1.35;;
11653;SDS011;5883;48.818;9.114;2023-07-30T10:09:42;2.60;;;1.27;;
11653;SDS011;5883;48.818;9.114;2023-07-30T10:12:31;6.45;;;1.90;;
11653;SDS011;5883;48.818;9.114;2023-07-30T10:15:18;2.17;;;1.42;;
11653;SDS011;5883;48.818;9.114;2023-07-30T10:18:03;2.30;;;1.52;;
11653;SDS011;5883;48.818;9.114;2023-07-30T10:20:52;1.55;;;1.17;;
11653;SDS011;5883;48.818;9.114;2023-07-30T10:23:45;1.98;;;1.50;;
11653;SDS011;5883;48.818;9.114;2023-07-30T10:26:31;2.35;;;1.48;;
11653;SDS011;5883;48.818;9.114;2023-07-30T10:29:19;1.67;;;1.13;;
11653;SDS011;5883;48.818;9.114;2023-07-30T10:32:07;2.65;;;1.40;;
11653;SDS011;5883;48.818;9.114;2023-07-30T10:34:52;1.65;;;1.40;;
11653;SDS011;5883;48.818;9.114;2023-07-30T10:37:44;1.50;;;1.30;;
11653;SDS011;5883;48.818;9.114;2023-07-30T10:40:30;2.10;;;1.30;;
11653;SDS011;5883;48.818;9.114;2023-07-30T10:43:16;3.15;;;1.58;;
11653;SDS011;5883;48.818;9.114;2023-07-30T10:46:02;1.88;;;1.25;;
11653;SDS011;5883;48.818;9.114;2023-07-30T10:48:48;2.05;;;1.50;;
11653;SDS011;5883;48.818;9.114;2023-07-30T10:51:33;2.03;;;1.30;;
11653;SDS011;5883;48.818;9.114;2023-07-30T10:54:20;3.85;;;1.20;;
11653;SDS011;5883;48.818;9.114;2023-07-30T10:57:05;1.52;;;1.20;;
11653;SDS011;5883;48.818;9.114;2023-07-30T10:59:51;4.25;;;1.48;;
11653;SDS011;5883;48.818;9.114;2023-07-30T11:02:40;2.95;;;1.70;;
11653;SDS011;5883;48.818;9.114;2023-07-30T11:05:25;3.05;;;1.15;;
11653;SDS011;5883;48.818;9.114;2023-07-30T11:08:10;2.45;;;1.40;;
11653;SDS011;5883;48.818;9.114;2023-07-30T11:10:55;2.58;;;1.80;;
11653;SDS011;5883;48.818;9.114;2023-07-30T11:13:41;3.95;;;1.58;;
11653;SDS011;5883;48.818;9.114;2023-07-30T11:16:26;3.53;;;1.42;;
11653;SDS011;5883;48.818;9.114;2023-07-30T11:19:13;5.88;;;1.63;;
11653;SDS011;5883;48.818;9.114;2023-07-30T11:21:58;1.92;;;1.30;;
11653;SDS011;5883;48.818;9.114;2023-07-30T11:24:44;4.10;;;1.75;;
11653;SDS011;5883;48.818;9.114;2023-07-30T11:27:29;2.92;;;1.85;;
11653;SDS011;5883;48.818;9.114;2023-07-30T11:30:14;3.35;;;1.48;;
11653;SDS011;5883;48.818;9.114;2023-07-30T11:33:00;3.25;;;1.40;;
11653;SDS011;5883;48.818;9.114;2023-07-30T11:35:47;3.67;;;1.52;;
11653;SDS011;5883;48.818;9.114;2023-07-30T11:38:32;3.10;;;1.50;;
11653;SDS011;5883;48.818;9.114;2023-07-30T11:41:17;2.22;;;1.50;;
11653;SDS011;5883;48.818;9.114;2023-07-30T11:44:03;1.85;;;1.30;;
11653;SDS011;5883;48.818;9.114;2023-07-30T11:46:52;2.22;;;1.20;;
11653;SDS011;5883;48.818;9.114;2023-07-30T11:49:38;1.30;;;1.15;;
11653;SDS011;5883;48.818;9.114;2023-07-30T11:52:25;2.42;;;1.20;;
11653;SDS011;5883;48.818;9.114;2023-07-30T11:55:10;2.22;;;1.40;;
11653;SDS011;5883;48.818;9.114;2023-07-30T11:57:55;1.42;;;1.10;;
11653;SDS011;5883;48.818;9.114;2023-07-30T12:00:43;1.63;;;1.40;;
11653;SDS011;5883;48.818;9.114;2023-07-30T12:03:28;5.25;;;1.55;;
11653;SDS011;5883;48.818;9.114;2023-07-30T12:06:14;1.83;;;1.15;;
11653;SDS011;5883;48.818;9.114;2023-07-30T12:09:02;2.25;;;1.50;;
11653;SDS011;5883;48.818;9.114;2023-07-30T12:11:54;2.65;;;1.30;;
11653;SDS011;5883;48.818;9.114;2023-07-30T12:14:42;2.55;;;1.10;;
11653;SDS011;5883;48.818;9.114;2023-07-30T12:17:28;2.00;;;1.25;;
11653;SDS011;5883;48.818;9.114;2023-07-30T12:20:15;1.75;;;1.25;;
11653;SDS011;5883;48.818;9.114;2023-07-30T12:23:01;2.00;;;1.27;;
11653;SDS011;5883;48.818;9.114;2023-07-30T12:25:48;1.15;;;1.05;;
11653;SDS011;5883;48.818;9.114;2023-07-30T12:28:33;2.83;;;1.40;;
11653;SDS011;5883;48.818;9.114;2023-07-30T12:31:18;1.88;;;1.40;;
11653;SDS011;5883;48.818;9.114;2023-07-30T12:34:03;2.22;;;1.25;;
11653;SDS011;5883;48.818;9.114;2023-07-30T12:36:50;5.38;;;1.52;;
11653;SDS011;5883;48.818;9.114;2023-07-30T12:39:35;3.83;;;1.63;;
11653;SDS011;5883;48.818;9.114;2023-07-30T12:42:22;3.53;;;1.30;;
11653;SDS011;5883;48.818;9.114;2023-07-30T12:45:07;2.63;;;1.30;;
11653;SDS011;5883;48.818;9.114;2023-07-30T12:47:53;1.73;;;1.17;;
11653;SDS011;5883;48.818;9.114;2023-07-30T12:50:37;2.35;;;1.17;;
11653;SDS011;5883;48.818;9.114;2023-07-30T12:53:24;3.80;;;1.20;;
11653;SDS011;5883;48.818;9.114;2023-07-30T12:56:09;2.85;;;1.42;;
11653;SDS011;5883;48.818;9.114;2023-07-30T12:58:57;2.72;;;1.38;;
11653;SDS011;5883;48.818;9.114;2023-07-30T13:01:42;4.43;;;1.35;;
11653;SDS011;5883;48.818;9.114;2023-07-30T13:04:27;2.38;;;1.40;;
11653;SDS011;5883;48.818;9.114;2023-07-30T13:07:12;2.97;;;1.40;;
11653;SDS011;5883;48.818;9.114;2023-07-30T13:10:04;3.88;;;1.45;;
11653;SDS011;5883;48.818;9.114;2023-07-30T13:12:49;1.50;;;1.00;;
11653;SDS011;5883;48.818;9.114;2023-07-30T13:15:36;1.85;;;1.30;;
11653;SDS011;5883;48.818;9.114;2023-07-30T13:18:22;1.38;;;1.17;;
11653;SDS011;5883;48.818;9.114;2023-07-30T13:21:07;1.80;;;1.38;;
11653;SDS011;5883;48.818;9.114;2023-07-30T13:23:53;2.83;;;1.58;;
11653;SDS011;5883;48.818;9.114;2023-07-30T13:26:38;2.83;;;1.45;;
11653;SDS011;5883;48.818;9.114;2023-07-30T13:29:23;2.85;;;1.27;;
11653;SDS011;5883;48.818;9.114;2023-07-30T13:32:09;1.70;;;1.10;;
11653;SDS011;5883;48.818;9.114;2023-07-30T13:34:55;1.08;;;0.95;;
11653;SDS011;5883;48.818;9.114;2023-07-30T13:37:40;3.78;;;1.42;;
11653;SDS011;5883;48.818;9.114;2023-07-30T13:40:27;3.35;;;1.08;;
11653;SDS011;5883;48.818;9.114;2023-07-30T13:43:12;2.85;;;1.50;;
11653;SDS011;5883;48.818;9.114;2023-07-30T13:45:58;6.75;;;1.40;;
11653;SDS011;5883;48.818;9.114;2023-07-30T13:48:45;2.38;;;1.00;;
11653;SDS011;5883;48.818;9.114;2023-07-30T13:51:32;1.27;;;0.98;;
11653;SDS011;5883;48.818;9.114;2023-07-30T13:54:18;1.98;;;1.63;;
11653;SDS011;5883;48.818;9.114;2023-07-30T13:57:04;6.97;;;1.40;;
11653;SDS011;5883;48.818;9.114;2023-07-30T13:59:49;2.40;;;1.50;;
11653;SDS011;5883;48.818;9.114;2023-07-30T14:02:35;2.65;;;1.40;;
11653;SDS011;5883;48.818;9.114;2023-07-30T14:05:21;4.50;;;1.30;;
11653;SDS011;5883;48.818;9.114;2023-07-30T14:08:06;3.20;;;1.10;;
11653;SDS011;5883;48.818;9.114;2023-07-30T14:10:51;2.17;;;1.30;;
11653;SDS011;5883;48.818;9.114;2023-07-30T14:13:37;1.65;;;1.33;;
11653;SDS011;5883;48.818;9.114;2023-07-30T14:16:22;3.35;;;1.38;;
11653;SDS011;5883;48.818;9.114;2023-07-30T14:19:10;6.90;;;1.58;;
11653;SDS011;5883;48.818;9.114;2023-07-30T14:22:00;3.05;;;1.48;;
11653;SDS011;5883;48.818;9.114;2023-07-30T14:24:45;2.17;;;1.30;;
11653;SDS011;5883;48.818;9.114;2023-07-30T14:27:30;4.30;;;1.27;;
11653;SDS011;5883;48.818;9.114;2023-07-30T14:30:18;3.38;;;1.17;;
11653;SDS011;5883;48.818;9.114;2023-07-30T14:33:03;5.18;;;1.67;;
11653;SDS011;5883;48.818;9.114;2023-07-30T14:35:49;4.30;;;1.38;;
11653;SDS011;5883;48.818;9.114;2023-07-30T14:38:37;3.80;;;1.45;;
11653;SDS011;5883;48.818;9.114;2023-07-30T14:41:22;2.00;;;1.20;;
11653;SDS011;5883;48.818;9.114;2023-07-30T14:44:08;1.77;;;1.00;;
11653;SDS011;5883;48.818;9.114;2023-07-30T14:46:53;1.67;;;1.17;;
11653;SDS011;5883;48.818;9.114;2023-07-30T14:49:41;2.65;;;1.10;;
11653;SDS011;5883;48.818;9.114;2023-07-30T14:52:27;5.90;;;1.30;;
11653;SDS011;5883;48.818;9.114;2023-07-30T14:55:13;3.38;;;1.08;;
11653;SDS011;5883;48.818;9.114;2023-07-30T14:57:59;4.32;;;1.35;;
11653;SDS011;5883;48.818;9.114;2023-07-30T15:00:44;2.05;;;1.10;;
11653;SDS011;5883;48.818;9.114;2023-07-30T15:03:29;5.75;;;1.65;;
11653;SDS011;5883;48.818;9.114;2023-07-30T15:06:14;2.15;;;1.05;;
11653;SDS011;5883;48.818;9.114;2023-07-30T15:09:00;5.28;;;1.30;;
11653;SDS011;5883;48.818;9.114;2023-07-30T15:11:48;3.60;;;1.50;;
11653;SDS011;5883;48.818;9.114;2023-07-30T15:14:33;1.98;;;1.40;;
11653;SDS011;5883;48.818;9.114;2023-07-30T15:17:18;3.47;;;1.50;;
11653;SDS011;5883;48.818;9.114;2023-07-30T15:20:12;1.73;;;1.10;;
11653;SDS011;5883;48.818;9.114;2023-07-30T15:22:58;2.97;;;1.23;;
11653;SDS011;5883;48.818;9.114;2023-07-30T15:25:43;1.88;;;1.20;;
11653;SDS011;5883;48.818;9.114;2023-07-30T15:28:30;2.72;;;1.27;;
11653;SDS011;5883;48.818;9.114;2023-07-30T15:31:16;3.78;;;1.30;;
11653;SDS011;5883;48.818;9.114;2023-07-30T15:34:01;3.08;;;0.90;;
11653;SDS011;5883;48.818;9.114;2023-07-30T15:36:47;1.80;;;1.05;;
11653;SDS011;5883;48.818;9.114;2023-07-30T15:39:32;3.03;;;1.00;;
11653;SDS011;5883;48.818;9.114;2023-07-30T15:42:18;2.03;;;1.20;;
11653;SDS011;5883;48.818;9.114;2023-07-30T15:45:05;3.00;;;1.23;;
11653;SDS011;5883;48.818;9.114;2023-07-30T15:47:51;2.05;;;1.20;;
11653;SDS011;5883;48.818;9.114;2023-07-30T15:50:37;2.75;;;1.30;;
11653;SDS011;5883;48.818;9.114;2023-07-30T15:53:22;5.82;;;1.30;;
11653;SDS011;5883;48.818;9.114;2023-07-30T15:56:07;3.50;;;1.13;;
11653;SDS011;5883;48.818;9.114;2023-07-30T15:58:53;2.58;;;1.20;;
11653;SDS011;5883;48.818;9.114;2023-07-30T16:01:39;4.55;;;1.00;;
11653;SDS011;5883;48.818;9.114;2023-07-30T16:04:24;4.28;;;1.13;;
11653;SDS011;5883;48.818;9.114;2023-07-30T16:07:10;6.45;;;1.40;;
11653;SDS011;5883;48.818;9.114;2023-07-30T16:09:56;3.53;;;1.00;;
11653;SDS011;5883;48.818;9.114;2023-07-30T16:12:42;2.75;;;1.38;;
11653;SDS011;5883;48.818;9.114;2023-07-30T16:15:27;2.53;;;1.10;;
11653;SDS011;5883;48.818;9.114;2023-07-30T16:18:14;1.95;;;1.20;;
11653;SDS011;5883;48.818;9.114;2023-07-30T16:21:00;3.88;;;1.33;;
11653;SDS011;5883;48.818;9.114;2023-07-30T16:23:45;3.83;;;1.30;;
11653;SDS011;5883;48.818;9.114;2023-07-30T16:26:40;1.98;;;1.30;;
11653;SDS011;5883;48.818;9.114;2023-07-30T16:29:27;2.97;;;1.23;;
11653;SDS011;5883;48.818;9.114;2023-07-30T16:32:12;1.55;;;1.00;;
11653;SDS011;5883;48.818;9.114;2023-07-30T16:34:59;3.13;;;1.20;;
11653;SDS011;5883;48.818;9.114;2023-07-30T16:37:45;4.88;;;1.50;;
11653;SDS011;5883;48.818;9.114;2023-07-30T16:40:30;4.32;;;1.42;;
11653;SDS011;5883;48.818;9.114;2023-07-30T16:43:16;6.25;;;1.73;;
11653;SDS011;5883;48.818;9.114;2023-07-30T16:46:04;2.35;;;1.25;;
11653;SDS011;5883;48.818;9.114;2023-07-30T16:48:49;3.08;;;1.40;;
11653;SDS011;5883;48.818;9.114;2023-07-30T16:51:35;2.78;;;1.50;;
11653;SDS011;5883;48.818;9.114;2023-07-30T16:59:24;1.85;;;1.02;;